Archival Weather

Chicago O'Hare International

Chicago, Illinois (KORD)

Report from: Sunday, November 19, 2023 12:51 AM CST
Current time: Tuesday, July 16, 2024 9:52 AM CDT

Current weather – Weather history – Daily summaries
Weather forecast

Temperature4.4°C (39.9°F)
Wind chill2.1°C (35.8°F)
Dew point-2.8°C (27.0°F)
Winds 5 kts (2.6 m/s, 5.8 mph) West (270°)
Visibility10 mi. (16.1 km)
Clouds Sky clear
Altimeter29.98 in.Hg (1015 mB)
Relative humidity59 %
Density altitude-1,278 ft. (-390 m)
Sea-level pressure101.5 kPa (1015 mB, 29.98 in.Hg)
Remarks Automated weather observing station with precipitation discriminator
Flight conditions Visual Meteorological Conditions
Raw dataKORD 190651Z 27005KT 10SM CLR 04/M03 A2998 RMK AO2 SLP154 T00441028
An error has occurred. This application may no longer respond until reloaded. Reload 🗙